createdAt,value
2018-10-17T00:01:22.764Z,99.73
2018-10-17T00:03:53.508Z,41.07
2018-10-17T00:06:24.241Z,43.67
2018-10-17T00:08:54.982Z,37.10
2018-10-17T00:11:25.927Z,32.17
2018-10-17T00:13:56.712Z,29.47
2018-10-17T00:16:27.473Z,28.77
2018-10-17T00:18:58.449Z,29.93
2018-10-17T00:21:29.271Z,26.60
2018-10-17T00:24:00.105Z,25.27
2018-10-17T00:26:31.083Z,26.50
2018-10-17T00:29:02.348Z,36.70
2018-10-17T00:31:39.624Z,30.20
2018-10-17T00:34:10.941Z,28.60
2018-10-17T00:36:42.278Z,57.27
2018-10-17T00:39:13.073Z,58.33
2018-10-17T00:41:43.913Z,85.60
2018-10-17T00:44:14.875Z,88.60
2018-10-17T00:46:45.646Z,69.70
2018-10-17T00:49:16.409Z,33.83
2018-10-17T00:51:47.095Z,23.63
2018-10-17T00:54:17.883Z,23.43
2018-10-17T00:56:48.657Z,24.60
2018-10-17T00:59:19.386Z,27.47
2018-10-17T01:01:50.150Z,28.60
2018-10-17T01:04:23.368Z,25.00
2018-10-17T01:06:54.553Z,22.33
2018-10-17T01:09:25.210Z,19.97
2018-10-17T01:11:56.236Z,22.37
2018-10-17T01:14:27.129Z,33.17
2018-10-17T01:16:57.797Z,22.10
2018-10-17T01:19:28.781Z,21.43
2018-10-17T01:21:59.552Z,21.90
2018-10-17T01:24:30.342Z,23.00
2018-10-17T01:27:01.113Z,25.33
2018-10-17T01:29:32.801Z,24.00
2018-10-17T01:32:03.513Z,24.13
2018-10-17T01:34:34.200Z,24.60
2018-10-17T01:37:05.028Z,24.73
2018-10-17T01:39:35.824Z,26.90
2018-10-17T01:42:07.235Z,25.10
2018-10-17T01:44:37.864Z,26.10
2018-10-17T01:47:08.652Z,32.00
2018-10-17T01:49:39.322Z,87.10
2018-10-17T01:52:10.198Z,69.57
2018-10-17T01:54:40.924Z,159.90
2018-10-17T01:57:11.763Z,40.77
2018-10-17T01:59:42.410Z,49.43
2018-10-17T02:02:13.132Z,43.07
2018-10-17T02:04:44.573Z,86.53
2018-10-17T02:07:15.436Z,149.00
2018-10-17T02:09:46.915Z,169.67
2018-10-17T02:12:17.827Z,541.10
2018-10-17T02:14:49.360Z,180.80
2018-10-17T02:17:20.416Z,100.57
2018-10-17T02:19:51.248Z,264.60
2018-10-17T02:22:22.475Z,37.77
2018-10-17T02:24:54.291Z,31.10
2018-10-17T02:27:25.093Z,32.03
2018-10-17T02:29:56.358Z,38.63
2018-10-17T02:32:27.260Z,33.17
2018-10-17T02:35:03.784Z,121.23
2018-10-17T02:37:34.732Z,32.97
2018-10-17T02:40:05.802Z,36.23
2018-10-17T02:42:36.517Z,36.37
2018-10-17T02:45:08.278Z,91.93
2018-10-17T02:47:39.150Z,29.40
2018-10-17T02:50:11.944Z,35.17
2018-10-17T02:52:43.512Z,33.17
2018-10-17T02:55:14.565Z,29.20
2018-10-17T02:57:45.447Z,32.77
2018-10-17T03:00:16.243Z,27.13
2018-10-17T03:02:46.929Z,28.77
2018-10-17T03:05:18.688Z,29.80
2018-10-17T03:07:49.357Z,27.57
2018-10-17T03:10:19.963Z,25.93
2018-10-17T03:12:50.548Z,24.97
2018-10-17T03:15:21.187Z,24.00
2018-10-17T03:17:52.023Z,23.73
2018-10-17T03:20:22.899Z,23.53
2018-10-17T03:22:53.780Z,22.80
2018-10-17T03:25:24.459Z,22.97
2018-10-17T03:27:55.343Z,21.93
2018-10-17T03:30:26.424Z,45.87
2018-10-17T03:32:57.416Z,23.03
2018-10-17T03:35:28.230Z,29.37
2018-10-17T03:37:59.899Z,30.37
2018-10-17T03:40:30.673Z,34.73
2018-10-17T03:43:01.845Z,44.27
2018-10-17T03:45:32.885Z,49.30
2018-10-17T03:48:03.603Z,100.13
2018-10-17T03:50:34.319Z,166.70
2018-10-17T03:53:05.250Z,175.10
2018-10-17T03:55:36.168Z,140.33
2018-10-17T03:58:07.476Z,184.40
2018-10-17T04:00:38.141Z,233.90
2018-10-17T04:03:09.029Z,359.20
2018-10-17T04:05:40.463Z,92.53
2018-10-17T04:08:11.229Z,105.60
2018-10-17T04:10:42.255Z,42.30
2018-10-17T04:13:13.078Z,131.53
2018-10-17T04:15:50.453Z,299.07
2018-10-17T04:18:21.221Z,224.03
2018-10-17T04:20:52.240Z,141.30
2018-10-17T04:23:23.265Z,55.73
2018-10-17T04:25:54.413Z,21.27
2018-10-17T04:28:28.150Z,20.23
2018-10-17T04:30:59.377Z,21.23
2018-10-17T04:33:30.495Z,22.87
2018-10-17T04:36:02.421Z,23.07
2018-10-17T04:38:34.052Z,24.30
2018-10-17T04:41:06.319Z,31.70
2018-10-17T04:43:37.289Z,73.77
2018-10-17T04:46:08.173Z,123.43
2018-10-17T04:48:39.011Z,85.10
2018-10-17T04:51:12.549Z,141.07
2018-10-17T04:53:43.731Z,75.60
2018-10-17T04:56:14.643Z,104.87
2018-10-17T04:58:46.366Z,50.43
2018-10-17T05:01:17.343Z,49.93
2018-10-17T05:03:48.597Z,189.47
2018-10-17T05:06:20.139Z,82.37
2018-10-17T05:08:51.241Z,165.17
2018-10-17T05:11:22.392Z,84.07
2018-10-17T05:13:56.285Z,54.73
2018-10-17T05:16:27.056Z,42.60
2018-10-17T05:18:58.071Z,38.50
2018-10-17T05:21:29.794Z,34.50
2018-10-17T05:24:00.759Z,35.40
2018-10-17T05:26:31.993Z,52.70
2018-10-17T05:29:02.910Z,25.83
2018-10-17T05:31:33.796Z,22.80
2018-10-17T05:34:04.635Z,25.23
2018-10-17T05:36:35.388Z,28.37
2018-10-17T05:39:08.354Z,36.10
2018-10-17T05:41:39.321Z,34.63
2018-10-17T05:44:10.051Z,29.00
2018-10-17T05:46:40.863Z,24.60
2018-10-17T05:49:11.639Z,24.37
2018-10-17T05:51:43.101Z,32.23
2018-10-17T05:54:14.078Z,27.53
2018-10-17T05:56:45.638Z,24.23
2018-10-17T05:59:16.719Z,28.57
2018-10-17T06:01:47.856Z,26.20
2018-10-17T06:04:18.654Z,21.57
2018-10-17T06:06:50.627Z,21.00
2018-10-17T06:09:22.274Z,22.00
2018-10-17T06:11:53.647Z,18.03
2018-10-17T06:14:24.634Z,18.47
2018-10-17T06:16:55.595Z,16.03
2018-10-17T06:19:26.420Z,15.93
2018-10-17T06:21:57.187Z,18.70
2018-10-17T06:24:28.243Z,17.20
2018-10-17T06:26:59.211Z,17.23
2018-10-17T06:29:30.962Z,18.43
2018-10-17T06:32:02.172Z,18.60
2018-10-17T06:34:36.382Z,16.40
2018-10-17T06:37:11.172Z,18.00
2018-10-17T06:39:42.233Z,18.60
2018-10-17T06:42:13.555Z,18.33
2018-10-17T06:44:45.229Z,18.37
2018-10-17T06:47:16.645Z,19.67
2018-10-17T06:49:47.816Z,23.53
2018-10-17T06:52:19.016Z,16.97
2018-10-17T06:54:50.542Z,14.93
2018-10-17T06:57:21.918Z,15.23
2018-10-17T06:59:53.131Z,14.37
2018-10-17T07:02:23.995Z,14.43
2018-10-17T07:04:55.200Z,15.77
2018-10-17T07:07:25.994Z,16.63
2018-10-17T07:09:56.977Z,14.77
2018-10-17T07:12:27.721Z,23.77
2018-10-17T07:14:58.676Z,19.83
2018-10-17T07:17:29.590Z,20.17
2018-10-17T07:20:00.533Z,19.00
2018-10-17T07:22:31.449Z,14.57
2018-10-17T07:25:02.507Z,14.30
2018-10-17T07:27:33.679Z,16.33
2018-10-17T07:30:04.526Z,14.70
2018-10-17T07:32:35.684Z,14.33
2018-10-17T07:35:07.473Z,13.83
2018-10-17T07:37:38.435Z,13.87
2018-10-17T07:40:09.986Z,15.40
2018-10-17T07:42:40.973Z,14.33
2018-10-17T07:45:11.995Z,15.90
2018-10-17T07:47:43.115Z,14.77
2018-10-17T07:50:14.186Z,16.70
2018-10-17T07:52:45.229Z,16.10
2018-10-17T07:55:16.099Z,20.20
2018-10-17T07:57:47.205Z,16.77
2018-10-17T08:00:19.015Z,20.40
2018-10-17T08:02:49.782Z,15.73
2018-10-17T08:05:23.005Z,18.27
2018-10-17T08:07:54.610Z,13.70
2018-10-17T08:14:01.294Z,17.60
2018-10-17T08:16:32.137Z,13.93
2018-10-17T08:19:03.062Z,14.40
2018-10-17T08:25:11.435Z,12.10
2018-10-17T08:27:43.669Z,14.53
2018-10-17T08:30:14.963Z,13.37
2018-10-17T08:32:46.878Z,12.37
2018-10-17T08:35:17.947Z,12.27
2018-10-17T08:37:49.240Z,11.57
2018-10-17T08:40:19.867Z,10.93
2018-10-17T08:42:50.880Z,11.23
2018-10-17T08:45:28.377Z,12.80
2018-10-17T08:47:59.431Z,12.40
2018-10-17T08:50:30.375Z,9.93
2018-10-17T08:53:01.328Z,10.00
2018-10-17T08:55:32.190Z,12.20
2018-10-17T08:58:03.086Z,8.40
2018-10-17T09:00:33.886Z,11.57
2018-10-17T09:03:04.927Z,9.10
2018-10-17T09:05:35.769Z,10.73
2018-10-17T09:08:07.102Z,9.13
2018-10-17T09:10:38.721Z,8.57
2018-10-17T09:13:09.594Z,8.63
2018-10-17T09:15:41.216Z,8.53
2018-10-17T09:18:12.271Z,8.27
2018-10-17T09:20:45.099Z,8.37
2018-10-17T09:23:15.949Z,10.97
2018-10-17T09:25:47.990Z,8.73
2018-10-17T09:28:19.151Z,17.20
2018-10-17T09:30:50.882Z,11.50
2018-10-17T09:33:22.236Z,9.50
2018-10-17T09:35:57.655Z,7.97
2018-10-17T09:38:28.504Z,8.07
2018-10-17T09:40:59.399Z,8.10
2018-10-17T09:43:31.012Z,9.80
2018-10-17T09:46:02.159Z,8.80
2018-10-17T09:48:33.471Z,8.20
2018-10-17T09:51:04.235Z,8.60
2018-10-17T09:53:35.160Z,8.27
2018-10-17T09:56:06.202Z,8.27
2018-10-17T09:58:37.421Z,9.03
2018-10-17T10:02:17.864Z,10.20
2018-10-17T10:04:48.663Z,8.63
2018-10-17T10:07:19.898Z,8.63
2018-10-17T10:09:51.049Z,31.77
2018-10-17T10:12:22.303Z,12.77
2018-10-17T10:14:53.432Z,8.27
2018-10-17T10:17:24.289Z,8.67
2018-10-17T10:19:55.184Z,8.27
2018-10-17T10:22:26.040Z,8.33
2018-10-17T10:24:57.123Z,8.10
2018-10-17T10:27:28.659Z,8.70
2018-10-17T10:29:59.445Z,8.67
2018-10-17T10:32:31.593Z,7.93
2018-10-17T10:35:04.009Z,9.57
2018-10-17T10:37:36.251Z,15.70
2018-10-17T10:40:09.463Z,8.70
2018-10-17T10:42:41.726Z,8.10
2018-10-17T10:45:12.786Z,10.40
2018-10-17T10:47:45.155Z,10.73
2018-10-17T10:50:16.003Z,15.40
2018-10-17T10:52:46.801Z,14.17
2018-10-17T10:55:17.635Z,9.53
2018-10-17T10:57:48.682Z,9.50
2018-10-17T11:00:19.976Z,8.80
2018-10-17T11:02:50.950Z,11.73
2018-10-17T11:05:22.054Z,11.70
2018-10-17T11:07:53.391Z,10.53
2018-10-17T11:10:24.331Z,11.13
2018-10-17T11:12:55.323Z,8.70
2018-10-17T11:15:26.517Z,9.23
2018-10-17T11:17:57.450Z,8.50
2018-10-17T11:20:28.487Z,13.97
2018-10-17T11:22:59.533Z,11.40
2018-10-17T11:25:30.754Z,9.17
2018-10-17T11:28:02.445Z,9.43
2018-10-17T11:30:33.701Z,9.07
2018-10-17T11:33:05.250Z,8.97
2018-10-17T11:35:36.119Z,11.67
2018-10-17T11:38:07.178Z,10.47
2018-10-17T11:40:38.187Z,8.60
2018-10-17T11:43:09.174Z,286.07
2018-10-17T11:45:40.173Z,137.77
2018-10-17T11:48:13.259Z,17.03
2018-10-17T11:50:44.228Z,10.30
2018-10-17T11:53:15.213Z,11.00
2018-10-17T11:55:46.738Z,13.40
2018-10-17T11:58:18.146Z,10.97
2018-10-17T12:00:49.342Z,11.37
2018-10-17T12:03:20.623Z,12.83
2018-10-17T12:05:53.053Z,14.80
2018-10-17T12:08:24.112Z,15.67
2018-10-17T12:10:56.188Z,17.60
2018-10-17T12:13:27.502Z,11.77
2018-10-17T12:15:59.019Z,10.77
2018-10-17T12:18:30.037Z,11.20
2018-10-17T12:21:01.212Z,10.70
2018-10-17T12:23:32.391Z,13.27
2018-10-17T12:26:03.356Z,8.93
2018-10-17T12:28:34.691Z,8.27
2018-10-17T12:31:06.216Z,8.70
2018-10-17T12:33:37.627Z,9.33
2018-10-17T12:36:08.873Z,8.97
2018-10-17T12:38:39.850Z,8.47
2018-10-17T12:41:11.607Z,9.93
2018-10-17T12:43:43.471Z,8.57
2018-10-17T12:46:14.642Z,9.13
2018-10-17T12:48:46.051Z,9.27
2018-10-17T12:51:17.228Z,7.47
2018-10-17T12:53:48.544Z,9.50
2018-10-17T12:56:19.762Z,8.20
2018-10-17T12:58:52.844Z,8.53
2018-10-17T13:01:25.039Z,9.40
2018-10-17T13:03:57.966Z,8.40
2018-10-17T13:06:29.872Z,7.60
2018-10-17T13:09:02.366Z,8.03
2018-10-17T13:11:35.033Z,7.67
2018-10-17T13:14:07.752Z,9.17
2018-10-17T13:16:41.082Z,8.43
2018-10-17T13:19:14.104Z,7.50
2018-10-17T13:21:47.718Z,6.63
2018-10-17T13:24:20.437Z,6.80
2018-10-17T13:26:53.003Z,8.23
2018-10-17T13:29:25.729Z,50.53
2018-10-17T13:31:58.531Z,6.93
2018-10-17T13:34:31.435Z,54.83
2018-10-17T13:37:06.260Z,5.63
2018-10-17T13:39:38.387Z,5.47
2018-10-17T13:42:10.933Z,5.07
2018-10-17T13:44:42.997Z,6.60
2018-10-17T13:47:15.615Z,5.93
2018-10-17T13:49:48.353Z,8.70
2018-10-17T13:52:20.526Z,47.03
2018-10-17T13:54:53.344Z,7.60
2018-10-17T13:57:26.430Z,7.17
2018-10-17T13:59:59.011Z,5.77
2018-10-17T14:02:31.461Z,6.10
2018-10-17T14:05:03.407Z,6.70
2018-10-17T14:07:36.141Z,6.63
2018-10-17T14:10:09.221Z,8.57
2018-10-17T14:12:40.703Z,8.20
2018-10-17T14:15:12.704Z,6.80
2018-10-17T14:17:43.733Z,7.77
2018-10-17T14:20:14.742Z,7.33
2018-10-17T14:22:45.990Z,7.03
2018-10-17T14:25:17.239Z,7.50
2018-10-17T14:27:47.946Z,10.03
2018-10-17T14:30:18.925Z,11.67
2018-10-17T14:32:49.754Z,6.83
2018-10-17T14:35:21.603Z,7.43
2018-10-17T14:37:52.735Z,6.77
2018-10-17T14:40:23.654Z,8.77
2018-10-17T14:42:54.643Z,6.33
2018-10-17T14:45:26.211Z,7.23
2018-10-17T14:47:57.445Z,8.53
2018-10-17T14:50:30.366Z,8.30
2018-10-17T14:53:01.818Z,7.67
2018-10-17T14:55:33.023Z,10.70
2018-10-17T14:58:04.373Z,7.17
2018-10-17T15:00:37.438Z,6.60
2018-10-17T15:03:10.676Z,13.00
2018-10-17T15:05:43.262Z,8.07
2018-10-17T15:08:16.773Z,8.30
2018-10-17T15:10:49.751Z,6.40
2018-10-17T15:13:22.205Z,10.10
2018-10-17T15:15:55.229Z,8.20
2018-10-17T15:18:27.676Z,7.07
2018-10-17T15:20:59.193Z,7.90
2018-10-17T15:23:30.225Z,9.13
2018-10-17T15:26:01.630Z,7.73
2018-10-17T15:28:32.873Z,6.80
2018-10-17T15:31:04.730Z,7.90
2018-10-17T15:33:35.720Z,9.20
2018-10-17T15:36:06.890Z,9.73
2018-10-17T15:38:38.112Z,7.70
2018-10-17T15:41:11.213Z,8.00
2018-10-17T15:43:43.703Z,12.50
2018-10-17T15:46:15.046Z,8.90
2018-10-17T15:48:49.478Z,7.67
2018-10-17T15:51:21.320Z,8.57
2018-10-17T15:53:54.770Z,12.07
2018-10-17T15:56:26.664Z,12.83
2018-10-17T16:02:40.019Z,11.43
2018-10-17T16:05:20.652Z,11.47
2018-10-17T16:07:57.009Z,15.40
2018-10-17T16:14:05.180Z,13.00
2018-10-17T16:16:40.989Z,9.77
2018-10-17T16:21:12.101Z,16.40
2018-10-17T16:23:42.969Z,14.93
2018-10-17T16:26:14.175Z,15.80
2018-10-17T16:28:45.118Z,11.37
2018-10-17T16:31:16.017Z,15.97
2018-10-17T16:33:47.241Z,14.10
2018-10-17T16:36:18.058Z,11.50
2018-10-17T16:38:49.613Z,11.03
2018-10-17T16:41:21.635Z,12.53
2018-10-17T16:43:52.734Z,18.83
2018-10-17T16:46:23.685Z,13.10
2018-10-17T16:48:54.697Z,22.80
2018-10-17T16:51:25.427Z,15.83
2018-10-17T16:53:56.440Z,15.17
2018-10-17T16:56:27.274Z,14.17
2018-10-17T16:58:58.283Z,11.27
2018-10-17T17:01:29.558Z,11.00
2018-10-17T17:04:01.624Z,17.90
2018-10-17T17:06:32.868Z,12.47
2018-10-17T17:09:04.293Z,11.40
2018-10-17T17:11:35.429Z,22.83
2018-10-17T17:14:07.238Z,23.00
2018-10-17T17:16:38.401Z,17.63
2018-10-17T17:19:09.368Z,16.47
2018-10-17T17:21:40.438Z,27.20
2018-10-17T17:24:12.120Z,14.57
2018-10-17T17:26:43.064Z,19.90
2018-10-17T17:29:13.837Z,20.53
2018-10-17T17:31:45.377Z,14.10
2018-10-17T17:34:16.443Z,14.83
2018-10-17T17:36:47.353Z,10.53
2018-10-17T17:39:18.440Z,11.40
2018-10-17T17:41:49.410Z,10.87
2018-10-17T17:44:20.376Z,11.60
2018-10-17T17:46:51.553Z,10.63
2018-10-17T17:49:22.519Z,11.70
2018-10-17T17:51:54.157Z,12.37
2018-10-17T17:54:26.660Z,12.57
2018-10-17T17:56:57.754Z,14.37
2018-10-17T17:59:29.175Z,16.97
2018-10-17T18:02:00.441Z,13.37
2018-10-17T18:04:31.412Z,12.00
2018-10-17T18:07:03.185Z,14.83
2018-10-17T18:09:34.525Z,10.80
2018-10-17T18:12:06.073Z,12.20
2018-10-17T18:14:38.218Z,15.47
2018-10-17T18:17:11.103Z,13.00
2018-10-17T18:19:42.870Z,10.07
2018-10-17T18:22:14.296Z,10.60
2018-10-17T18:24:45.865Z,9.50
2018-10-17T18:27:17.362Z,10.07
2018-10-17T18:29:49.853Z,9.10
2018-10-17T18:32:23.958Z,9.37
2018-10-17T18:34:56.000Z,9.87
2018-10-17T18:37:28.261Z,10.80
2018-10-17T18:40:01.374Z,11.93
2018-10-17T18:42:38.321Z,10.10
2018-10-17T18:45:10.436Z,10.10
2018-10-17T18:47:41.880Z,9.50
2018-10-17T18:50:17.425Z,9.93
2018-10-17T18:52:50.826Z,10.93
2018-10-17T18:55:28.423Z,11.80
2018-10-17T18:57:59.779Z,11.40
2018-10-17T19:00:31.168Z,10.57
2018-10-17T19:03:04.689Z,10.37
2018-10-17T19:05:36.222Z,10.97
2018-10-17T19:08:08.671Z,11.17
2018-10-17T19:10:39.751Z,10.10
2018-10-17T19:13:11.224Z,10.63
2018-10-17T19:15:42.560Z,11.93
2018-10-17T19:18:14.833Z,10.27
2018-10-17T19:20:46.372Z,9.93
2018-10-17T19:23:18.807Z,9.47
2018-10-17T19:25:50.244Z,9.73
2018-10-17T19:28:21.691Z,10.00
2018-10-17T19:30:57.813Z,11.17
2018-10-17T19:33:32.371Z,9.77
2018-10-17T19:36:05.165Z,10.03
2018-10-17T19:38:39.916Z,9.37
2018-10-17T19:41:14.047Z,10.60
2018-10-17T19:43:47.194Z,11.37
2018-10-17T19:46:20.623Z,10.80
2018-10-17T19:48:56.852Z,10.17
2018-10-17T19:51:28.554Z,12.80
2018-10-17T19:53:59.619Z,10.53
2018-10-17T19:56:30.862Z,9.23
2018-10-17T19:59:02.825Z,11.87
2018-10-17T20:01:35.178Z,14.73
2018-10-17T20:04:08.164Z,10.30
2018-10-17T20:06:39.824Z,9.13
2018-10-17T20:09:12.591Z,9.23
2018-10-17T20:11:45.785Z,11.87
2018-10-17T20:14:17.216Z,9.50
2018-10-17T20:16:49.500Z,9.40
2018-10-17T20:19:23.542Z,12.60
2018-10-17T20:21:54.780Z,42.20
2018-10-17T20:24:27.481Z,15.00
2018-10-17T20:26:59.076Z,20.07
2018-10-17T20:29:30.980Z,17.47
2018-10-17T20:32:02.729Z,9.90
2018-10-17T20:34:34.405Z,9.40
2018-10-17T20:37:06.635Z,10.13
2018-10-17T20:39:40.814Z,9.90
2018-10-17T20:42:15.384Z,10.23
2018-10-17T20:44:48.489Z,10.53
2018-10-17T20:47:19.749Z,9.77
2018-10-17T20:49:52.253Z,10.10
2018-10-17T20:52:24.048Z,10.07
2018-10-17T20:54:56.271Z,10.90
2018-10-17T20:57:27.256Z,13.27
2018-10-17T20:59:59.898Z,14.10
2018-10-17T21:02:31.982Z,11.23
2018-10-17T21:05:03.300Z,12.20
2018-10-17T21:07:34.195Z,11.47
2018-10-17T21:10:05.780Z,11.50
2018-10-17T21:12:37.084Z,11.10
2018-10-17T21:15:09.268Z,11.00
2018-10-17T21:17:42.247Z,11.47
2018-10-17T21:20:14.164Z,10.70
2018-10-17T21:22:45.873Z,11.13
2018-10-17T21:25:17.984Z,11.33
2018-10-17T21:27:49.804Z,11.87
2018-10-17T21:30:22.739Z,11.20
2018-10-17T21:32:53.652Z,11.77
2018-10-17T21:35:26.588Z,11.60
2018-10-17T21:37:57.558Z,11.00
2018-10-17T21:40:30.247Z,13.77
2018-10-17T21:43:01.324Z,11.37
2018-10-17T21:45:32.459Z,11.33
2018-10-17T21:48:03.598Z,12.17
2018-10-17T21:50:34.606Z,11.57
2018-10-17T21:53:05.704Z,11.40
2018-10-17T21:55:36.766Z,12.53
2018-10-17T21:58:08.861Z,13.23
2018-10-17T22:00:40.450Z,15.70
2018-10-17T22:03:11.368Z,15.63
2018-10-17T22:05:42.092Z,16.23
2018-10-17T22:08:12.927Z,15.20
2018-10-17T22:10:43.868Z,14.07
2018-10-17T22:13:14.970Z,13.90
2018-10-17T22:15:45.942Z,13.50
2018-10-17T22:18:16.653Z,13.37
2018-10-17T22:20:47.497Z,13.30
2018-10-17T22:23:18.465Z,13.17
2018-10-17T22:25:49.523Z,13.03
2018-10-17T22:28:20.532Z,12.57
2018-10-17T22:30:51.643Z,13.03
2018-10-17T22:33:22.879Z,12.93
2018-10-17T22:35:53.585Z,12.63
2018-10-17T22:38:24.294Z,15.03
2018-10-17T22:40:55.165Z,12.63
2018-10-17T22:43:26.049Z,12.33
2018-10-17T22:45:57.982Z,12.93
2018-10-17T22:48:28.765Z,13.47
2018-10-17T22:50:59.821Z,13.67
2018-10-17T22:53:31.023Z,12.83
2018-10-17T22:56:02.069Z,13.77
2018-10-17T22:58:33.443Z,13.33
2018-10-17T23:01:04.397Z,13.17
2018-10-17T23:03:35.852Z,13.87
2018-10-17T23:06:06.733Z,12.93
2018-10-17T23:08:37.752Z,13.37
2018-10-17T23:11:08.933Z,13.03
2018-10-17T23:13:39.889Z,12.10
2018-10-17T23:16:10.977Z,12.37
2018-10-17T23:18:43.966Z,12.50
2018-10-17T23:21:15.151Z,12.70
2018-10-17T23:23:52.780Z,15.60
2018-10-17T23:26:23.693Z,21.73
2018-10-17T23:28:55.021Z,31.87
2018-10-17T23:31:25.903Z,34.27
2018-10-17T23:33:56.506Z,34.80
2018-10-17T23:36:27.014Z,24.20
2018-10-17T23:38:57.720Z,14.40
2018-10-17T23:41:28.504Z,12.30
2018-10-17T23:43:59.445Z,11.47
2018-10-17T23:46:30.179Z,12.47
2018-10-17T23:49:01.109Z,13.53
2018-10-17T23:51:31.820Z,13.03
2018-10-17T23:54:02.811Z,13.03
2018-10-17T23:56:33.721Z,13.30
2018-10-17T23:59:05.080Z,12.57
